Newton, Illinois
Current Conditions -  °F | °C
As of 2:55 AM on Friday 24 Oct 2014 (Local Time) from KOLY Reporting Station
Overcast Overcast  
Wind Chill: 46°   Ceiling: 3000
Heat Index: 46°   Visibility: 10mi
Dew Point: 45°   Wind: 0mph
Humidity: 93%   Direction: NA
Pressure: 30.11"   Gusts: NA
Location:  38.99°N, 88.16°W
Report Text: KOLY 240755Z AUTO 00000KT 10SM OVC030 08/07 A3011 RMK AO2
Loading
Personal Weather Stations






























Interactive Weather Map
Tropical Storm Tracking
New forecast layout! Learn more

10-Day Weather Forecast

Advertisements
Track Severe Weather on mobile